WetterOnline ( http://www.wetteronline.de )

Wetter aktuell Döttesfeld

Aktuelles Wetter: Roleber (162m)

6-stündlich | Neueste Meldungen
Ortszeit Temperatur Wetter
Di, 24.04. 2:00 10.3° C leicht bewölkt
Mo, 23.04. 20:00 16.2° C leicht bewölkt
Mo, 23.04. 14:00 17.3° C wolkig
Mo, 23.04. 8:00 15.3° C bewölkt
Mo, 23.04. 2:00 18.1° C bedeckt
So, 22.04. 20:00 23.9° C bedeckt
So, 22.04. 14:00 26.5° C leicht bewölkt
So, 22.04. 8:00 16.4° C wolkig
Ortszeit Temperatur Wetter
Di, 24.04. 6:30 8.3° C wolkig
Di, 24.04. 6:20 8.3° C wolkig
Di, 24.04. 6:10 8.2° C wolkig
Di, 24.04. 6:00 8.2° C bewölkt
Di, 24.04. 5:50 8.2° C bewölkt
Di, 24.04. 5:40 8.5° C bedeckt
Di, 24.04. 5:30 8.7° C wolkig
Di, 24.04. 5:00 8.5° C bewölkt
Di, 24.04. 4:30 8.9° C wolkig
Di, 24.04. 4:00 9.3° C wolkig
Di, 24.04. 3:30 9.2° C wolkig
Ortszeit Relative Feuchte Sichtweite
Di, 24.04. 2:00 79% 40 km
Mo, 23.04. 20:00 53% 40 km
Mo, 23.04. 14:00 58% 18 km
Mo, 23.04. 8:00 86% 22 km
Mo, 23.04. 2:00 68% 30 km
So, 22.04. 20:00 38% 30 km
So, 22.04. 14:00 41% 30 km
So, 22.04. 8:00 74% 10 km
Ortszeit Relative Feuchte Sichtweite
Di, 24.04. 6:30 87% 29 km
Di, 24.04. 6:20 87% -
Di, 24.04. 6:10 87% -
Di, 24.04. 6:00 89% 27 km
Di, 24.04. 5:50 89% -
Di, 24.04. 5:40 86% -
Di, 24.04. 5:30 86% 30 km
Di, 24.04. 5:00 88% 27 km
Di, 24.04. 4:30 85% 30 km
Di, 24.04. 4:00 83% 40 km
Di, 24.04. 3:30 83% 35 km
Ortszeit Niederschlagsmenge Niederschlagsart
Di, 24.04. 2:00 0.0 l/m2 in 6 Std. -
Mo, 23.04. 20:00 0.1 l/m2 in 12 Std. Sprühregen
Mo, 23.04. 14:00 0.0 l/m2 in 6 Std. -
Mo, 23.04. 8:00 0.2 l/m2 in 12 Std. Regen
Mo, 23.04. 2:00 0.0 l/m2 in 6 Std. -
So, 22.04. 20:00 0.0 l/m2 in 12 Std. -
So, 22.04. 14:00 0.0 l/m2 in 6 Std. -
So, 22.04. 8:00 0.0 l/m2 in 12 Std. -
Ortszeit Niederschlagsmenge Niederschlagsart
Di, 24.04. 6:30 0.0 l/m2 in 1 Std. -
Di, 24.04. 6:20 keine Meldung -
Di, 24.04. 6:10 keine Meldung -
Di, 24.04. 6:00 0.0 l/m2 in 1 Std. -
Di, 24.04. 5:50 keine Meldung -
Di, 24.04. 5:40 keine Meldung -
Di, 24.04. 5:30 0.0 l/m2 in 1 Std. -
Di, 24.04. 5:00 0.0 l/m2 in 1 Std. -
Di, 24.04. 4:30 0.0 l/m2 in 1 Std. -
Di, 24.04. 4:00 0.0 l/m2 in 1 Std. -
Di, 24.04. 3:30 0.0 l/m2 in 1 Std. -
Ortszeit Stärke Spitze Richtung
km/h Bft. km/h Grad Sektor
Di, 24.04. 2:00 6 1 26 280° W
Mo, 23.04. 20:00 14 3 40 290° W
Mo, 23.04. 14:00 14 3 29 290° W
Mo, 23.04. 8:00 6 1 44 310° NW
Mo, 23.04. 2:00 11 2 32 200° S
So, 22.04. 20:00 18 3 43 230° SW
So, 22.04. 14:00 14 3 25 170° S
So, 22.04. 8:00 11 2 18 160° S
Ortszeit Stärke Spitze Richtung
km/h Bft. km/h Grad Sektor
Di, 24.04. 6:30 7 2 14 210° SW
Di, 24.04. 6:20 7 2 - 210° SW
Di, 24.04. 6:10 9 2 - 210° SW
Di, 24.04. 6:00 7 2 14 210° SW
Di, 24.04. 5:50 7 2 - 210° SW
Di, 24.04. 5:40 7 2 - 210° SW
Di, 24.04. 5:30 7 2 14 230° SW
Di, 24.04. 5:00 7 2 11 210° SW
Di, 24.04. 4:30 6 1 9 230° SW
Di, 24.04. 4:00 6 1 13 230° SW
Di, 24.04. 3:30 7 2 11 230° SW
Ortszeit Untergrenze Bedeckung Gattung
total tief tief mittel hoch
Di, 24.04. 2:00 2700 m 3/8 - - - -
Mo, 23.04. 20:00 1800 m 5/8 2/8 - - -
Mo, 23.04. 14:00 1020 m 7/8 2/8 - - -
Mo, 23.04. 8:00 1500 m 8/8 5/8 - - -
Mo, 23.04. 2:00 3000 m 8/8 8/8 - - -
So, 22.04. 20:00 3900 m 8/8 8/8 - - -
So, 22.04. 14:00 2100 m 4/8 4/8 - - -
So, 22.04. 8:00 9000 m 8/8 0/8 - - -
Ortszeit Bedeckungsgrad in Achtel und Wolkenuntergrenze
Di, 24.04. 6:30 7(8100m) 8(8700m) 8(9000m)
Di, 24.04. 6:20 7(8100m) 8(8700m) 8(9000m)
Di, 24.04. 6:10 1(6900m) 8(9000m) 8(9000m)
Di, 24.04. 6:00 6(6900m) 8(9000m) 8(9000m)
Di, 24.04. 5:50 6(6900m) 8(9000m) 8(9000m)
Di, 24.04. 5:40 8(6900m) 8(9000m) 8(9000m)
Di, 24.04. 5:30 3(6900m) 7(7500m) 8(9000m)
Di, 24.04. 5:00 5(6600m) 8(8400m) 8(9000m)
Di, 24.04. 4:30 8(7800m) 8(8700m) 8(9000m)
Di, 24.04. 4:00 1(6300m) 7(8100m) 8(9000m)
Di, 24.04. 3:30 3(930m) 3(2100m) 7(9000m)
Ortszeit Luftdruck NN (hPa) Tendenz (hPa in 3 Std.)
Di, 24.04. 2:00 1019 + 0,8
Mo, 23.04. 20:00 1016 + 0,9
Mo, 23.04. 14:00 1016 + 0,9
Mo, 23.04. 8:00 1014 + 0,9
Mo, 23.04. 2:00 1012 + 0,1
So, 22.04. 20:00 1010 + 1,0
So, 22.04. 14:00 1011 - 2,4
So, 22.04. 8:00 1014 - 1,0
Ortszeit Luftdruck NN (hPa) Tendenz (hPa in 3 Std.)
Di, 24.04. 6:30 1018 - 0,5
Di, 24.04. 6:20 1018 keine Meldung
Di, 24.04. 6:10 1018 keine Meldung
Di, 24.04. 6:00 1018 - 0,8
Di, 24.04. 5:50 1018 keine Meldung
Di, 24.04. 5:40 1018 keine Meldung
Di, 24.04. 5:30 1018 - 0,7
Di, 24.04. 5:00 1018 - 0,6
Di, 24.04. 4:30 1018 - 0,3
Di, 24.04. 4:00 1018 0,0
Di, 24.04. 3:30 1018 + 0,2
Ortszeit Schneehöhe (cm)
Di, 24.04. 2:00 0
Mo, 23.04. 20:00 0
Mo, 23.04. 14:00 0
Mo, 23.04. 8:00 0
Mo, 23.04. 2:00 0
So, 22.04. 20:00 0
So, 22.04. 14:00 0
So, 22.04. 8:00 0
Ortszeit Schneehöhe (cm)
Di, 24.04. 6:30 0
Di, 24.04. 6:20 0
Di, 24.04. 6:10 0
Di, 24.04. 6:00 0
Di, 24.04. 5:50 0
Di, 24.04. 5:40 0
Di, 24.04. 5:30 0
Di, 24.04. 5:00 0
Di, 24.04. 4:30 0
Di, 24.04. 4:00 0
Di, 24.04. 3:30 0
Link zu dieser Seite / Seite empfehlen

Das Wetter in ...